createdAt,value
2022-12-23T00:01:31.925Z,17.08
2022-12-23T00:03:59.393Z,19.48
2022-12-23T00:06:26.883Z,16.98
2022-12-23T00:08:58.357Z,20.77
2022-12-23T00:11:25.818Z,20.50
2022-12-23T00:14:14.825Z,18.30
2022-12-23T00:16:46.896Z,19.90
2022-12-23T00:19:13.519Z,20.88
2022-12-23T00:21:39.926Z,20.75
2022-12-23T00:24:06.542Z,16.73
2022-12-23T00:26:33.055Z,20.45
2022-12-23T00:29:02.455Z,21.58
2022-12-23T00:31:32.119Z,18.90
2022-12-23T00:33:58.806Z,20.60
2022-12-23T00:36:29.755Z,18.85
2022-12-23T00:39:30.992Z,21.73
2022-12-23T00:42:36.035Z,18.98
2022-12-23T00:45:15.706Z,15.48
2022-12-23T00:48:02.956Z,21.10
2022-12-23T00:50:30.406Z,16.88
2022-12-23T00:52:57.336Z,21.38
2022-12-23T00:55:24.168Z,17.17
2022-12-23T00:57:50.888Z,18.65
2022-12-23T01:00:17.760Z,17.58
2022-12-23T01:03:02.828Z,19.33
2022-12-23T01:05:38.490Z,17.65
2022-12-23T01:08:07.307Z,16.00
2022-12-23T01:10:37.904Z,15.13
2022-12-23T01:13:05.108Z,19.30
2022-12-23T01:15:32.569Z,11.60
2022-12-23T01:17:59.279Z,14.68
2022-12-23T01:20:25.789Z,15.43
2022-12-23T01:22:52.330Z,16.58
2022-12-23T01:25:24.756Z,19.92
2022-12-23T01:27:51.370Z,16.52
2022-12-23T01:30:17.911Z,15.70
2022-12-23T01:32:44.410Z,18.15
2022-12-23T01:35:10.889Z,19.20
2022-12-23T01:37:37.579Z,21.60
2022-12-23T01:40:04.500Z,19.42
2022-12-23T01:42:46.788Z,17.52
2022-12-23T01:45:32.060Z,19.20
2022-12-23T01:48:11.574Z,14.73
2022-12-23T01:50:43.400Z,18.42
2022-12-23T01:53:15.285Z,18.35
2022-12-23T01:55:55.695Z,14.52
2022-12-23T01:58:46.983Z,17.63
2022-12-23T02:01:32.705Z,17.02
2022-12-23T02:04:03.993Z,14.00
2022-12-23T02:06:55.497Z,15.40
2022-12-23T02:09:33.290Z,16.83
2022-12-23T02:12:24.343Z,14.07
2022-12-23T02:15:18.468Z,20.83
2022-12-23T02:18:09.823Z,12.73
2022-12-23T02:20:57.622Z,13.35
2022-12-23T02:24:03.964Z,11.90
2022-12-23T02:26:51.630Z,16.83
2022-12-23T02:29:38.354Z,10.52
2022-12-23T02:32:26.199Z,16.58
2022-12-23T02:34:54.237Z,13.25
2022-12-23T02:37:28.496Z,11.73
2022-12-23T02:40:36.751Z,14.10
2022-12-23T02:43:15.936Z,12.13
2022-12-23T02:45:59.820Z,10.65
2022-12-23T02:48:41.883Z,12.88
2022-12-23T02:51:12.661Z,14.07
2022-12-23T02:53:45.725Z,13.30
2022-12-23T02:56:14.715Z,12.35
2022-12-23T02:59:05.465Z,13.52
2022-12-23T03:01:33.775Z,15.20
2022-12-23T03:04:00.505Z,11.07
2022-12-23T03:06:32.108Z,11.93
2022-12-23T03:08:59.845Z,12.68
2022-12-23T03:11:40.071Z,14.50
2022-12-23T03:14:25.525Z,16.92
2022-12-23T03:16:57.886Z,12.75
2022-12-23T03:19:37.789Z,15.68
2022-12-23T03:22:16.421Z,15.35
2022-12-23T03:24:51.929Z,13.27
2022-12-23T03:27:18.388Z,15.43
2022-12-23T03:30:11.818Z,13.90
2022-12-23T03:32:49.740Z,17.27
2022-12-23T03:35:20.135Z,13.70
2022-12-23T03:37:50.615Z,14.93
2022-12-23T03:40:22.983Z,15.23
2022-12-23T03:42:55.027Z,13.13
2022-12-23T03:45:42.168Z,14.00
2022-12-23T03:48:16.302Z,16.85
2022-12-23T03:50:43.959Z,12.75
2022-12-23T03:53:17.494Z,13.38
2022-12-23T03:55:50.597Z,12.07
2022-12-23T03:58:28.091Z,11.23
2022-12-23T04:01:18.328Z,12.55
2022-12-23T04:04:13.671Z,11.88
2022-12-23T04:06:50.528Z,13.43
2022-12-23T04:09:22.223Z,11.07
2022-12-23T04:11:49.642Z,16.20
2022-12-23T04:14:20.598Z,10.93
2022-12-23T04:16:49.626Z,11.80
2022-12-23T04:19:16.374Z,11.10
2022-12-23T04:21:42.835Z,12.77
2022-12-23T04:24:09.412Z,13.70
2022-12-23T04:26:35.927Z,12.30
2022-12-23T04:29:02.579Z,10.38
2022-12-23T04:31:29.176Z,11.35
2022-12-23T04:33:55.640Z,11.40
2022-12-23T04:36:22.094Z,13.02
2022-12-23T04:38:48.752Z,12.80
2022-12-23T04:41:15.242Z,11.75
2022-12-23T04:43:41.705Z,12.27
2022-12-23T04:46:08.221Z,11.23
2022-12-23T04:48:35.698Z,11.75
2022-12-23T04:51:03.144Z,9.82
2022-12-23T04:53:29.708Z,11.60
2022-12-23T04:55:56.163Z,10.70
2022-12-23T04:58:25.062Z,11.60
2022-12-23T05:01:04.919Z,12.40
2022-12-23T05:03:31.783Z,9.40
2022-12-23T05:05:58.352Z,11.45
2022-12-23T05:08:25.025Z,12.80
2022-12-23T05:10:51.651Z,11.38
2022-12-23T05:13:18.097Z,9.95
2022-12-23T05:15:45.941Z,12.85
2022-12-23T05:18:12.591Z,12.48
2022-12-23T05:20:38.984Z,12.50
2022-12-23T05:23:05.407Z,14.82
2022-12-23T05:25:36.636Z,13.55
2022-12-23T05:28:04.341Z,14.80
2022-12-23T05:30:30.886Z,14.57
2022-12-23T05:32:57.536Z,13.02
2022-12-23T05:35:25.959Z,14.30
2022-12-23T05:37:53.282Z,12.68
2022-12-23T05:40:23.443Z,13.48
2022-12-23T05:42:53.753Z,11.02
2022-12-23T05:45:20.794Z,14.55
2022-12-23T05:47:47.395Z,14.32
2022-12-23T05:50:14.082Z,11.65
2022-12-23T05:52:40.606Z,11.45
2022-12-23T05:55:07.749Z,12.48
2022-12-23T05:57:34.265Z,12.38
2022-12-23T06:00:00.710Z,11.52
2022-12-23T06:02:27.342Z,13.18
2022-12-23T06:04:56.674Z,13.00
2022-12-23T06:07:23.188Z,12.25
2022-12-23T06:09:49.649Z,11.25
2022-12-23T06:12:16.339Z,10.90
2022-12-23T06:14:42.887Z,11.63
2022-12-23T06:17:09.492Z,11.98
2022-12-23T06:19:36.165Z,12.50
2022-12-23T06:22:02.574Z,11.73
2022-12-23T06:24:30.316Z,10.85
2022-12-23T06:26:57.599Z,9.82
2022-12-23T06:29:24.957Z,11.00
2022-12-23T06:31:51.563Z,11.40
2022-12-23T06:34:18.191Z,11.02
2022-12-23T06:36:44.721Z,11.80
2022-12-23T06:39:11.437Z,11.13
2022-12-23T06:41:37.844Z,12.50
2022-12-23T06:44:04.508Z,12.45
2022-12-23T06:46:31.204Z,12.43
2022-12-23T06:49:00.962Z,12.23
2022-12-23T06:51:27.540Z,9.75
2022-12-23T06:53:56.274Z,15.95
2022-12-23T06:56:22.660Z,16.75
2022-12-23T06:58:49.170Z,30.33
2022-12-23T07:01:15.713Z,25.13
2022-12-23T07:03:42.248Z,19.27
2022-12-23T07:06:12.074Z,15.73
2022-12-23T07:08:38.567Z,16.60
2022-12-23T07:11:05.538Z,17.38
2022-12-23T07:13:33.078Z,16.85
2022-12-23T07:16:05.593Z,15.52
2022-12-23T07:18:32.200Z,13.60
2022-12-23T07:21:04.815Z,12.68
2022-12-23T07:23:31.544Z,12.77
2022-12-23T07:25:58.009Z,12.98
2022-12-23T07:28:24.661Z,13.35
2022-12-23T07:30:51.282Z,15.05
2022-12-23T07:33:17.714Z,15.07
2022-12-23T07:35:46.214Z,16.40
2022-12-23T07:38:12.843Z,17.55
2022-12-23T07:40:39.295Z,19.05
2022-12-23T07:43:05.878Z,18.98
2022-12-23T07:45:32.404Z,16.10
2022-12-23T07:48:00.825Z,15.48
2022-12-23T07:50:28.220Z,19.00
2022-12-23T07:52:55.580Z,16.13
2022-12-23T07:55:22.457Z,16.15
2022-12-23T07:57:50.330Z,17.98
2022-12-23T08:00:18.197Z,16.92
2022-12-23T08:02:45.054Z,15.35
2022-12-23T08:05:13.613Z,18.00
2022-12-23T08:07:41.061Z,16.80
2022-12-23T08:10:08.737Z,18.52
2022-12-23T08:12:35.158Z,19.65
2022-12-23T08:15:01.596Z,18.33
2022-12-23T08:17:31.187Z,20.38
2022-12-23T08:19:57.712Z,21.02
2022-12-23T08:22:24.495Z,24.83
2022-12-23T08:24:52.417Z,20.83
2022-12-23T08:27:18.934Z,24.10
2022-12-23T08:29:45.578Z,23.30
2022-12-23T08:32:12.235Z,21.13
2022-12-23T08:34:38.822Z,25.02
2022-12-23T08:37:05.278Z,23.70
2022-12-23T08:39:31.906Z,24.83
2022-12-23T08:41:58.512Z,28.23
2022-12-23T08:44:27.864Z,23.50
2022-12-23T08:46:55.296Z,27.08
2022-12-23T08:49:22.349Z,24.58
2022-12-23T08:51:49.668Z,23.65
2022-12-23T08:54:17.476Z,23.88
2022-12-23T08:56:43.977Z,22.40
2022-12-23T08:59:19.129Z,26.92
2022-12-23T09:01:46.848Z,24.77
2022-12-23T09:04:13.619Z,26.83
2022-12-23T09:06:42.529Z,28.58
2022-12-23T09:09:11.605Z,28.55
2022-12-23T09:11:38.441Z,26.98
2022-12-23T09:14:05.907Z,28.52
2022-12-23T09:16:32.676Z,27.83
2022-12-23T09:18:59.504Z,32.55
2022-12-23T09:21:26.368Z,32.95
2022-12-23T09:23:53.080Z,33.05
2022-12-23T09:26:25.111Z,32.03
2022-12-23T09:28:52.242Z,32.92
2022-12-23T09:31:19.428Z,29.13
2022-12-23T09:33:52.670Z,30.90
2022-12-23T09:36:20.345Z,40.55
2022-12-23T09:38:46.963Z,39.00
2022-12-23T09:41:36.970Z,39.03
2022-12-23T09:44:23.684Z,43.63
2022-12-23T09:47:01.047Z,37.97
2022-12-23T09:49:27.844Z,38.90
2022-12-23T09:52:00.240Z,36.67
2022-12-23T09:54:29.426Z,56.50
2022-12-23T09:57:05.411Z,40.60
2022-12-23T09:59:51.101Z,27.05
2022-12-23T10:02:45.184Z,45.60
2022-12-23T10:05:29.107Z,41.72
2022-12-23T10:08:15.277Z,32.13
2022-12-23T10:10:49.991Z,33.50
2022-12-23T10:13:29.718Z,31.50
2022-12-23T10:16:03.325Z,26.73
2022-12-23T10:18:53.307Z,29.45
2022-12-23T10:21:57.930Z,30.35
2022-12-23T10:24:26.750Z,27.63
2022-12-23T10:27:04.499Z,23.55
2022-12-23T10:29:33.092Z,27.48
2022-12-23T10:32:11.744Z,24.92
2022-12-23T10:34:44.412Z,31.45
2022-12-23T10:37:24.554Z,22.10
2022-12-23T10:40:02.947Z,26.23
2022-12-23T10:42:38.209Z,28.15
2022-12-23T10:45:07.489Z,26.95
2022-12-23T10:47:42.763Z,28.80
2022-12-23T10:50:27.916Z,30.85
2022-12-23T10:52:58.920Z,25.58
2022-12-23T10:55:33.729Z,24.02
2022-12-23T10:58:08.875Z,21.60
2022-12-23T11:00:40.036Z,26.00
2022-12-23T11:03:20.886Z,26.92
2022-12-23T11:05:50.893Z,24.98
2022-12-23T11:08:18.370Z,28.08
2022-12-23T11:10:45.116Z,27.08
2022-12-23T11:13:23.855Z,30.05
2022-12-23T11:15:50.345Z,24.65
2022-12-23T11:18:19.518Z,28.23
2022-12-23T11:21:02.362Z,26.65
2022-12-23T11:23:31.938Z,31.33
2022-12-23T11:26:07.545Z,30.60
2022-12-23T11:28:46.521Z,29.60
2022-12-23T11:31:14.600Z,32.90
2022-12-23T11:33:48.887Z,31.63
2022-12-23T11:36:24.930Z,37.45
2022-12-23T11:39:04.607Z,40.60
2022-12-23T11:41:38.813Z,39.95
2022-12-23T11:44:17.263Z,43.08
2022-12-23T11:46:43.674Z,43.47
2022-12-23T11:49:19.415Z,49.90
2022-12-23T11:51:49.174Z,54.08
2022-12-23T11:54:18.563Z,49.67
2022-12-23T11:56:47.646Z,47.00
2022-12-23T11:59:34.008Z,53.60
2022-12-23T12:02:05.586Z,41.67
2022-12-23T12:04:35.378Z,55.90
2022-12-23T12:07:04.187Z,51.97
2022-12-23T12:09:32.345Z,47.20
2022-12-23T12:12:05.711Z,48.67
2022-12-23T12:14:44.983Z,43.15
2022-12-23T12:17:33.481Z,44.33
2022-12-23T12:20:10.811Z,48.63
2022-12-23T12:22:41.418Z,41.85
2022-12-23T12:25:51.566Z,45.45
2022-12-23T12:28:22.878Z,44.60
2022-12-23T12:31:00.548Z,38.78
2022-12-23T12:33:44.872Z,33.33
2022-12-23T12:36:32.923Z,43.75
2022-12-23T12:39:01.212Z,39.00
2022-12-23T12:41:37.097Z,39.10
2022-12-23T12:44:27.859Z,34.58
2022-12-23T12:47:36.329Z,32.13
2022-12-23T12:50:04.805Z,33.15
2022-12-23T12:52:39.015Z,31.80
2022-12-23T12:55:25.832Z,32.95
2022-12-23T12:57:52.489Z,38.90
2022-12-23T13:00:23.061Z,31.23
2022-12-23T13:03:10.992Z,30.05
2022-12-23T13:05:53.311Z,29.10
2022-12-23T13:08:41.197Z,30.90
2022-12-23T13:11:24.908Z,30.80
2022-12-23T13:14:33.935Z,27.02
2022-12-23T13:17:08.519Z,29.05
2022-12-23T13:19:56.207Z,32.70
2022-12-23T13:22:28.608Z,29.40
2022-12-23T13:25:10.072Z,29.95
2022-12-23T13:28:02.493Z,34.35
2022-12-23T13:30:35.604Z,31.98
2022-12-23T13:33:15.557Z,28.88
2022-12-23T13:36:31.369Z,31.23
2022-12-23T13:39:00.530Z,29.13
2022-12-23T13:41:34.808Z,35.45
2022-12-23T13:44:05.387Z,32.47
2022-12-23T13:46:38.550Z,31.52
2022-12-23T13:49:11.376Z,30.35
2022-12-23T13:51:37.761Z,30.05
2022-12-23T13:54:27.607Z,27.23
2022-12-23T13:57:08.557Z,32.50
2022-12-23T13:59:43.861Z,29.98
2022-12-23T14:02:35.080Z,33.55
2022-12-23T14:05:03.339Z,24.92
2022-12-23T14:07:33.329Z,30.27
2022-12-23T14:10:11.221Z,26.95
2022-12-23T14:12:40.568Z,24.27
2022-12-23T14:15:31.968Z,21.75
2022-12-23T14:18:15.968Z,23.88
2022-12-23T14:20:50.731Z,22.48
2022-12-23T14:23:25.175Z,22.17
2022-12-23T14:26:09.332Z,23.02
2022-12-23T14:28:54.126Z,24.60
2022-12-23T14:31:45.303Z,22.85
2022-12-23T14:34:17.722Z,23.77
2022-12-23T14:37:21.166Z,23.90
2022-12-23T14:39:49.332Z,23.10
2022-12-23T14:42:41.527Z,22.02
2022-12-23T14:45:41.457Z,27.70
2022-12-23T14:48:37.165Z,27.05
2022-12-23T14:51:09.671Z,23.70
2022-12-23T14:53:57.124Z,20.70
2022-12-23T14:56:38.868Z,22.27
2022-12-23T14:59:34.807Z,27.77
2022-12-23T15:04:44.199Z,22.33
2022-12-23T15:07:22.304Z,25.90
2022-12-23T15:10:00.531Z,24.85
2022-12-23T15:12:31.711Z,22.40
2022-12-23T15:15:02.426Z,25.40
2022-12-23T15:17:34.851Z,22.27
2022-12-23T15:20:10.502Z,22.88
2022-12-23T15:22:41.221Z,21.92
2022-12-23T15:28:01.236Z,22.88
2022-12-23T15:30:34.425Z,22.02
2022-12-23T15:33:11.876Z,20.45
2022-12-23T15:35:48.465Z,21.50
2022-12-23T15:38:16.917Z,25.05
2022-12-23T15:40:43.856Z,23.85
2022-12-23T15:43:24.853Z,23.30
2022-12-23T15:45:52.590Z,22.40
2022-12-23T15:48:29.047Z,22.65
2022-12-23T15:51:01.251Z,18.90
2022-12-23T15:53:34.837Z,21.25
2022-12-23T15:56:26.075Z,21.60
2022-12-23T15:58:54.446Z,23.45
2022-12-23T16:01:22.398Z,23.27
2022-12-23T16:04:02.544Z,24.23
2022-12-23T16:06:32.986Z,19.92
2022-12-23T16:09:25.533Z,20.63
2022-12-23T16:12:00.392Z,22.95
2022-12-23T16:14:39.744Z,25.85
2022-12-23T16:17:08.949Z,23.90
2022-12-23T16:19:47.562Z,27.27
2022-12-23T16:22:24.948Z,23.23
2022-12-23T16:25:17.158Z,23.77
2022-12-23T16:27:48.801Z,25.52
2022-12-23T16:30:25.798Z,21.83
2022-12-23T16:32:58.351Z,21.38
2022-12-23T16:35:30.695Z,22.63
2022-12-23T16:38:08.656Z,21.30
2022-12-23T16:40:35.136Z,18.83
2022-12-23T16:43:01.747Z,20.13
2022-12-23T16:45:28.292Z,22.15
2022-12-23T16:47:57.156Z,20.20
2022-12-23T16:50:24.002Z,23.60
2022-12-23T16:52:50.497Z,23.33
2022-12-23T16:55:19.958Z,24.42
2022-12-23T16:57:46.728Z,22.80
2022-12-23T17:00:16.033Z,23.90
2022-12-23T17:02:47.719Z,24.33
2022-12-23T17:05:19.488Z,23.55
2022-12-23T17:07:46.177Z,23.27
2022-12-23T17:10:14.863Z,23.65
2022-12-23T17:12:43.404Z,22.25
2022-12-23T17:15:22.905Z,20.02
2022-12-23T17:17:50.692Z,21.25
2022-12-23T17:20:19.127Z,31.55
2022-12-23T17:22:47.805Z,35.10
2022-12-23T17:25:21.307Z,37.17
2022-12-23T17:27:55.639Z,30.33
2022-12-23T17:30:25.223Z,30.48
2022-12-23T17:32:55.909Z,30.55
2022-12-23T17:35:23.783Z,26.88
2022-12-23T17:37:51.038Z,23.20
2022-12-23T17:40:18.331Z,19.75
2022-12-23T17:42:45.402Z,22.67
2022-12-23T17:45:27.633Z,20.05
2022-12-23T17:47:54.710Z,19.40
2022-12-23T17:50:22.057Z,21.92
2022-12-23T17:52:48.923Z,20.38
2022-12-23T17:55:22.280Z,25.23
2022-12-23T17:57:48.876Z,20.70
2022-12-23T18:00:25.132Z,22.10
2022-12-23T18:03:12.980Z,20.48
2022-12-23T18:05:39.560Z,20.42
2022-12-23T18:08:06.114Z,22.23
2022-12-23T18:10:39.438Z,22.42
2022-12-23T18:13:08.096Z,24.52
2022-12-23T18:15:40.450Z,22.20
2022-12-23T18:18:31.243Z,19.63
2022-12-23T18:21:05.401Z,24.27
2022-12-23T18:23:34.207Z,18.20
2022-12-23T18:26:01.055Z,19.48
2022-12-23T18:28:27.638Z,24.02
2022-12-23T18:30:57.687Z,28.33
2022-12-23T18:33:28.476Z,24.88
2022-12-23T18:35:54.996Z,36.40
2022-12-23T18:38:21.594Z,28.65
2022-12-23T18:40:52.008Z,27.08
2022-12-23T18:43:22.084Z,33.60
2022-12-23T18:45:53.333Z,33.00
2022-12-23T18:48:21.420Z,37.22
2022-12-23T18:50:48.135Z,31.70
2022-12-23T18:53:23.726Z,37.88
2022-12-23T18:55:51.424Z,40.33
2022-12-23T18:58:18.276Z,39.50
2022-12-23T19:00:45.408Z,36.53
2022-12-23T19:03:30.307Z,32.80
2022-12-23T19:05:58.339Z,28.33
2022-12-23T19:08:27.914Z,32.20
2022-12-23T19:10:55.652Z,44.15
2022-12-23T19:13:22.513Z,26.17
2022-12-23T19:15:49.280Z,33.05
2022-12-23T19:18:21.279Z,33.13
2022-12-23T19:20:48.792Z,36.25
2022-12-23T19:23:16.282Z,33.83
2022-12-23T19:25:54.590Z,31.60
2022-12-23T19:28:22.598Z,37.47
2022-12-23T19:30:49.548Z,33.20
2022-12-23T19:33:16.293Z,33.30
2022-12-23T19:35:43.472Z,33.45
2022-12-23T19:38:10.215Z,33.60
2022-12-23T19:40:36.786Z,33.35
2022-12-23T19:43:03.545Z,31.52
2022-12-23T19:45:30.028Z,36.78
2022-12-23T19:47:56.588Z,32.38
2022-12-23T19:50:22.996Z,35.63
2022-12-23T19:52:50.699Z,24.45
2022-12-23T19:55:17.336Z,39.97
2022-12-23T19:57:43.945Z,35.15
2022-12-23T20:00:11.066Z,33.97
2022-12-23T20:02:37.580Z,30.58
2022-12-23T20:05:04.366Z,37.20
2022-12-23T20:07:30.909Z,35.30
2022-12-23T20:09:57.368Z,30.35
2022-12-23T20:12:25.363Z,38.97
2022-12-23T20:14:51.850Z,53.67
2022-12-23T20:17:18.322Z,31.52
2022-12-23T20:19:46.375Z,36.13
2022-12-23T20:22:13.095Z,35.25
2022-12-23T20:24:39.561Z,31.00
2022-12-23T20:27:10.948Z,29.33
2022-12-23T20:29:38.219Z,33.40
2022-12-23T20:32:04.865Z,33.75
2022-12-23T20:34:38.427Z,24.20
2022-12-23T20:37:06.439Z,30.25
2022-12-23T20:39:33.104Z,28.42
2022-12-23T20:41:59.554Z,28.80
2022-12-23T20:44:35.600Z,25.10
2022-12-23T20:47:03.237Z,19.48
2022-12-23T20:49:30.803Z,26.20
2022-12-23T20:51:57.403Z,25.40
2022-12-23T20:54:31.610Z,19.75
2022-12-23T20:56:59.609Z,18.40
2022-12-23T20:59:26.101Z,18.13
2022-12-23T21:01:52.644Z,16.67
2022-12-23T21:04:19.113Z,13.10
2022-12-23T21:06:45.682Z,16.60
2022-12-23T21:09:13.971Z,18.55
2022-12-23T21:11:44.640Z,18.90
2022-12-23T21:14:11.823Z,16.80
2022-12-23T21:16:38.497Z,21.27
2022-12-23T21:19:13.132Z,19.90
2022-12-23T21:21:39.596Z,20.40
2022-12-23T21:24:06.448Z,17.38
2022-12-23T21:26:34.476Z,15.35
2022-12-23T21:29:03.806Z,16.30
2022-12-23T21:31:31.922Z,18.98
2022-12-23T21:33:58.906Z,13.55
2022-12-23T21:36:28.168Z,14.30
2022-12-23T21:38:54.760Z,16.77
2022-12-23T21:41:35.290Z,15.50
2022-12-23T21:44:02.725Z,12.90
2022-12-23T21:46:29.834Z,17.55
2022-12-23T21:48:58.303Z,15.77
2022-12-23T21:51:26.149Z,16.83
2022-12-23T21:53:54.703Z,12.77
2022-12-23T21:56:26.859Z,12.15
2022-12-23T21:58:58.584Z,23.35
2022-12-23T22:01:25.997Z,19.30
2022-12-23T22:03:53.856Z,15.70
2022-12-23T22:06:31.851Z,16.83
2022-12-23T22:08:58.447Z,16.33
2022-12-23T22:11:30.889Z,16.70
2022-12-23T22:13:59.404Z,19.58
2022-12-23T22:16:28.834Z,18.40
2022-12-23T22:18:57.940Z,20.33
2022-12-23T22:21:26.201Z,21.27
2022-12-23T22:23:53.885Z,21.70
2022-12-23T22:26:25.701Z,17.02
2022-12-23T22:28:56.508Z,21.92
2022-12-23T22:31:27.425Z,25.73
2022-12-23T22:33:53.876Z,23.65
2022-12-23T22:36:20.307Z,17.13
2022-12-23T22:38:53.029Z,17.58
2022-12-23T22:41:19.805Z,15.32
2022-12-23T22:43:46.317Z,19.40
2022-12-23T22:46:13.361Z,20.67
2022-12-23T22:48:40.040Z,19.63
2022-12-23T22:51:11.053Z,13.40
2022-12-23T22:53:37.495Z,21.83
2022-12-23T22:56:05.247Z,20.27
2022-12-23T22:58:34.295Z,20.95
2022-12-23T23:01:01.049Z,18.67
2022-12-23T23:03:28.505Z,20.92
2022-12-23T23:06:07.090Z,16.73
2022-12-23T23:08:34.773Z,15.68
2022-12-23T23:11:04.497Z,25.05
2022-12-23T23:13:34.003Z,19.45
2022-12-23T23:16:01.480Z,21.10
2022-12-23T23:18:29.506Z,20.40
2022-12-23T23:20:55.938Z,19.30
2022-12-23T23:23:23.784Z,19.13
2022-12-23T23:25:50.319Z,12.27
2022-12-23T23:28:17.142Z,18.02
2022-12-23T23:30:43.979Z,18.65
2022-12-23T23:33:11.040Z,18.00
2022-12-23T23:35:37.883Z,18.20
2022-12-23T23:38:04.689Z,17.83
2022-12-23T23:40:31.379Z,17.58
2022-12-23T23:42:57.826Z,17.05
2022-12-23T23:45:24.371Z,16.50
2022-12-23T23:47:51.004Z,17.35
2022-12-23T23:50:17.557Z,17.15
2022-12-23T23:52:44.133Z,16.13
2022-12-23T23:55:10.744Z,20.80
2022-12-23T23:57:37.367Z,24.20
